Ana Sayfa
METAR-TAF:

METAR-TAF

Havaalanları :

Konya Havalimanı

Konya, Türkiye

Enlem: 37-58N, Boylam: 032-33E, yükseklik: 1032 m

Güncel hava durumu gözlemi

Rapor saat 04:50 UTC de 1 saat ve 5 dakika önce yapıldı.
Sakin rüzgar
Sıcaklık 2°C
Nem 100%
Basınç 1024 hPa
Görüş mesafesi: 0250 m
sis

METAR: LTAN 180450Z 00000KT 0250 R01/0300N R19/0250N FG VV001 02/02 Q1024 NOSIG

Saat: 08:55 (05:55 UTC)

Tahmin

Rapor saat 04:40 UTC de 1 saat ve 15 dakika önce yapıldı.
Ayın 18'si saat 06 UTC'den ayın 18'si saat 15 UTC'ye kadar geçerli Tahmin
Rüzgar değişken yönden 2 kt
Görüş mesafesi: 0300 m
100 ft yükseklikte
sis
Dönüşüyor
ayın 18'si saat 07 UTC'den ayın 18'si saat 09 UTC'ye kadar
Görüş mesafesi: 3500 m
1000 ft yükseklikte parçalı bulutlu
Pus
Dönüşüyor
ayın 18'si saat 09 UTC'den ayın 18'si saat 11 UTC'ye kadar
Görüş mesafesi: 7000 m

TAF: LTAN 180440Z 1806/1815 VRB02KT 0300 FG VV001 BECMG 1807/1809 3500 BR SCT010 BECMG 1809/1811 7000

4.000'den fazla havaalanı için hava durumu gözlemleri ve tahminleri (METAR ve TAF raporları).

Kullanılabilir istasyonlar harita üzerinde sarı ve kırmızı noktalarla gösterilir.

İstasyonun adını görmek için fareyi noktanın üzerinde gezdirin.

Sonrasında hava gözlem ve tahminlerini görmek için tıklayın.

Haritayı değiştirmek için: yaklaştırmak için siyah artı işaretli yeşil düğmeye ve uzaklaştırmak için de eksi işaretli düğmeye hızla tıklayın; bitişik haritalar için yeşil okları kullanın.


METAR-TAF: